Route Details

Aircraft Information
Group: Large Widebodies
Types: B744, MD11
Route Data
Distance: 3848nm
Duration: 8h 34m
Origin METAR: SAEZ 100500Z 12007KT CAVOK 20/16 Q1010 NOSIG RMK PP000
Dest. METAR: KMIA 100553Z 00000KT 10SM CLR 22/18 A3008 RMK AO2 SLP185 T02220183 10250 20222 58006
Freight Data
(for Dec 10, 2022)
Load Factor:
46%
Manifested Cargo: 104,432lbs
Financial History
Total Freight: 627,284lbs
Average Load: 0lbs/flt
Fuel Used: 1,122,392lbs
Avg. Fuel Used: 0lbs/flt
Fuel Expense: $751,571
Avg. Fuel Expense: $0
Avg. Fuel Cost: $0/lbs
Total Gross Income: $1,903,965
Pilot Pay: $1,045
Total Expenses: $361,981
Total Revenue: $776,478
Average Revenue: $0

Capitol Logistics 734




SAEZ
Aeropuerto Internacional Ezeiza/Ministro Pistarini
Buenos Aires, AR
KMIA
Miami International Airport
Miami, US